sensor_id;sensor_type;location;lat;lon;timestamp;P1;durP1;ratioP1;P2;durP2;ratioP2
47749;SDS011;49810;48.160;10.812;2023-09-30T00:00:28;48.75;;;17.92;;
47749;SDS011;49810;48.160;10.812;2023-09-30T00:02:56;43.88;;;17.25;;
47749;SDS011;49810;48.160;10.812;2023-09-30T00:05:24;43.00;;;17.80;;
47749;SDS011;49810;48.160;10.812;2023-09-30T00:07:53;43.03;;;17.40;;
47749;SDS011;49810;48.160;10.812;2023-09-30T00:10:20;45.17;;;18.73;;
47749;SDS011;49810;48.160;10.812;2023-09-30T00:12:48;41.90;;;18.05;;
47749;SDS011;49810;48.160;10.812;2023-09-30T00:15:16;41.78;;;18.05;;
47749;SDS011;49810;48.160;10.812;2023-09-30T00:17:44;39.50;;;16.67;;
47749;SDS011;49810;48.160;10.812;2023-09-30T00:20:12;39.33;;;17.65;;
47749;SDS011;49810;48.160;10.812;2023-09-30T00:22:41;41.33;;;17.60;;
47749;SDS011;49810;48.160;10.812;2023-09-30T00:25:10;41.83;;;17.33;;
47749;SDS011;49810;48.160;10.812;2023-09-30T00:27:38;41.40;;;16.27;;
47749;SDS011;49810;48.160;10.812;2023-09-30T00:30:06;43.80;;;17.70;;
47749;SDS011;49810;48.160;10.812;2023-09-30T00:32:34;37.45;;;16.02;;
47749;SDS011;49810;48.160;10.812;2023-09-30T00:35:03;41.70;;;16.92;;
47749;SDS011;49810;48.160;10.812;2023-09-30T00:37:30;42.67;;;16.65;;
47749;SDS011;49810;48.160;10.812;2023-09-30T00:39:59;37.15;;;16.58;;
47749;SDS011;49810;48.160;10.812;2023-09-30T00:42:28;38.58;;;16.13;;
47749;SDS011;49810;48.160;10.812;2023-09-30T00:44:56;39.22;;;17.20;;
47749;SDS011;49810;48.160;10.812;2023-09-30T00:47:24;39.53;;;16.35;;
47749;SDS011;49810;48.160;10.812;2023-09-30T00:49:53;40.58;;;16.50;;
47749;SDS011;49810;48.160;10.812;2023-09-30T00:52:21;39.05;;;16.75;;
47749;SDS011;49810;48.160;10.812;2023-09-30T00:54:49;38.88;;;16.00;;
47749;SDS011;49810;48.160;10.812;2023-09-30T00:57:17;38.38;;;15.80;;
47749;SDS011;49810;48.160;10.812;2023-09-30T00:59:48;42.05;;;17.20;;
47749;SDS011;49810;48.160;10.812;2023-09-30T01:02:17;35.88;;;15.63;;
47749;SDS011;49810;48.160;10.812;2023-09-30T01:04:45;38.28;;;16.40;;
47749;SDS011;49810;48.160;10.812;2023-09-30T01:07:14;42.05;;;17.08;;
47749;SDS011;49810;48.160;10.812;2023-09-30T01:09:42;41.40;;;17.58;;
47749;SDS011;49810;48.160;10.812;2023-09-30T01:12:10;39.92;;;16.50;;
47749;SDS011;49810;48.160;10.812;2023-09-30T01:14:38;36.83;;;16.17;;
47749;SDS011;49810;48.160;10.812;2023-09-30T01:17:09;44.40;;;17.13;;
47749;SDS011;49810;48.160;10.812;2023-09-30T01:19:40;39.20;;;17.10;;
47749;SDS011;49810;48.160;10.812;2023-09-30T01:22:10;39.08;;;15.90;;
47749;SDS011;49810;48.160;10.812;2023-09-30T01:24:38;48.75;;;16.77;;
47749;SDS011;49810;48.160;10.812;2023-09-30T01:27:07;41.55;;;16.52;;
47749;SDS011;49810;48.160;10.812;2023-09-30T01:29:35;40.13;;;16.55;;
47749;SDS011;49810;48.160;10.812;2023-09-30T01:32:05;39.08;;;15.93;;
47749;SDS011;49810;48.160;10.812;2023-09-30T01:34:35;40.15;;;16.42;;
47749;SDS011;49810;48.160;10.812;2023-09-30T01:37:03;38.58;;;16.30;;
47749;SDS011;49810;48.160;10.812;2023-09-30T01:39:32;41.20;;;16.73;;
47749;SDS011;49810;48.160;10.812;2023-09-30T01:42:00;39.65;;;15.43;;
47749;SDS011;49810;48.160;10.812;2023-09-30T01:44:31;39.17;;;16.42;;
47749;SDS011;49810;48.160;10.812;2023-09-30T01:46:59;39.10;;;16.67;;
47749;SDS011;49810;48.160;10.812;2023-09-30T01:49:27;38.20;;;16.67;;
47749;SDS011;49810;48.160;10.812;2023-09-30T01:51:55;39.70;;;15.95;;
47749;SDS011;49810;48.160;10.812;2023-09-30T01:54:24;39.90;;;15.27;;
47749;SDS011;49810;48.160;10.812;2023-09-30T01:56:54;37.17;;;15.40;;
47749;SDS011;49810;48.160;10.812;2023-09-30T01:59:22;37.00;;;15.15;;
47749;SDS011;49810;48.160;10.812;2023-09-30T02:01:50;37.38;;;16.38;;
47749;SDS011;49810;48.160;10.812;2023-09-30T02:04:18;39.03;;;15.90;;
47749;SDS011;49810;48.160;10.812;2023-09-30T02:06:46;35.80;;;15.23;;
47749;SDS011;49810;48.160;10.812;2023-09-30T02:09:14;35.03;;;14.57;;
47749;SDS011;49810;48.160;10.812;2023-09-30T02:11:42;37.67;;;15.52;;
47749;SDS011;49810;48.160;10.812;2023-09-30T02:14:11;41.55;;;16.67;;
47749;SDS011;49810;48.160;10.812;2023-09-30T02:16:39;35.85;;;14.85;;
47749;SDS011;49810;48.160;10.812;2023-09-30T02:19:07;37.25;;;15.80;;
47749;SDS011;49810;48.160;10.812;2023-09-30T02:21:37;33.70;;;14.73;;
47749;SDS011;49810;48.160;10.812;2023-09-30T02:24:06;36.30;;;16.33;;
47749;SDS011;49810;48.160;10.812;2023-09-30T02:26:34;39.95;;;15.88;;
47749;SDS011;49810;48.160;10.812;2023-09-30T02:29:02;38.08;;;16.02;;
47749;SDS011;49810;48.160;10.812;2023-09-30T02:31:31;37.10;;;15.10;;
47749;SDS011;49810;48.160;10.812;2023-09-30T02:34:00;38.22;;;16.92;;
47749;SDS011;49810;48.160;10.812;2023-09-30T02:36:30;38.55;;;15.38;;
47749;SDS011;49810;48.160;10.812;2023-09-30T02:38:58;36.53;;;14.80;;
47749;SDS011;49810;48.160;10.812;2023-09-30T02:41:27;36.75;;;15.50;;
47749;SDS011;49810;48.160;10.812;2023-09-30T02:43:55;37.70;;;15.32;;
47749;SDS011;49810;48.160;10.812;2023-09-30T02:46:24;35.88;;;15.18;;
47749;SDS011;49810;48.160;10.812;2023-09-30T02:48:56;38.50;;;15.93;;
47749;SDS011;49810;48.160;10.812;2023-09-30T02:51:24;38.03;;;16.17;;
47749;SDS011;49810;48.160;10.812;2023-09-30T02:53:55;34.67;;;14.25;;
47749;SDS011;49810;48.160;10.812;2023-09-30T02:56:23;36.55;;;14.55;;
47749;SDS011;49810;48.160;10.812;2023-09-30T02:58:52;36.67;;;16.27;;
47749;SDS011;49810;48.160;10.812;2023-09-30T03:01:20;40.33;;;15.98;;
47749;SDS011;49810;48.160;10.812;2023-09-30T03:03:48;34.13;;;14.55;;
47749;SDS011;49810;48.160;10.812;2023-09-30T03:06:18;35.30;;;14.90;;
47749;SDS011;49810;48.160;10.812;2023-09-30T03:08:46;33.38;;;14.85;;
47749;SDS011;49810;48.160;10.812;2023-09-30T03:11:14;32.65;;;14.25;;
47749;SDS011;49810;48.160;10.812;2023-09-30T03:13:43;40.42;;;15.00;;
47749;SDS011;49810;48.160;10.812;2023-09-30T03:16:10;33.17;;;14.00;;
47749;SDS011;49810;48.160;10.812;2023-09-30T03:18:38;36.83;;;13.93;;
47749;SDS011;49810;48.160;10.812;2023-09-30T03:21:13;33.17;;;13.43;;
47749;SDS011;49810;48.160;10.812;2023-09-30T03:23:43;32.40;;;12.80;;
47749;SDS011;49810;48.160;10.812;2023-09-30T03:26:11;33.90;;;12.30;;
47749;SDS011;49810;48.160;10.812;2023-09-30T03:28:40;30.27;;;12.95;;
47749;SDS011;49810;48.160;10.812;2023-09-30T03:31:07;35.05;;;14.18;;
47749;SDS011;49810;48.160;10.812;2023-09-30T03:33:37;32.42;;;13.45;;
47749;SDS011;49810;48.160;10.812;2023-09-30T03:36:08;31.83;;;13.82;;
47749;SDS011;49810;48.160;10.812;2023-09-30T03:38:36;32.20;;;13.23;;
47749;SDS011;49810;48.160;10.812;2023-09-30T03:41:05;32.33;;;13.57;;
47749;SDS011;49810;48.160;10.812;2023-09-30T03:43:35;30.80;;;12.82;;
47749;SDS011;49810;48.160;10.812;2023-09-30T03:46:07;30.63;;;12.68;;
47749;SDS011;49810;48.160;10.812;2023-09-30T03:48:35;26.67;;;11.95;;
47749;SDS011;49810;48.160;10.812;2023-09-30T03:51:09;31.58;;;12.13;;
47749;SDS011;49810;48.160;10.812;2023-09-30T03:53:40;31.80;;;12.57;;
47749;SDS011;49810;48.160;10.812;2023-09-30T03:56:10;31.23;;;11.80;;
47749;SDS011;49810;48.160;10.812;2023-09-30T03:58:38;31.55;;;12.20;;
47749;SDS011;49810;48.160;10.812;2023-09-30T04:01:06;29.10;;;12.40;;
47749;SDS011;49810;48.160;10.812;2023-09-30T04:03:34;28.45;;;12.23;;
47749;SDS011;49810;48.160;10.812;2023-09-30T04:06:04;30.88;;;12.85;;
47749;SDS011;49810;48.160;10.812;2023-09-30T04:08:33;30.05;;;12.00;;
47749;SDS011;49810;48.160;10.812;2023-09-30T04:11:01;29.50;;;12.07;;
47749;SDS011;49810;48.160;10.812;2023-09-30T04:13:31;33.85;;;12.38;;
47749;SDS011;49810;48.160;10.812;2023-09-30T04:15:59;31.58;;;11.93;;
47749;SDS011;49810;48.160;10.812;2023-09-30T04:18:27;27.60;;;11.75;;
47749;SDS011;49810;48.160;10.812;2023-09-30T04:20:56;29.65;;;12.27;;
47749;SDS011;49810;48.160;10.812;2023-09-30T04:23:24;26.50;;;11.48;;
47749;SDS011;49810;48.160;10.812;2023-09-30T04:25:52;30.63;;;12.10;;
47749;SDS011;49810;48.160;10.812;2023-09-30T04:28:20;29.80;;;11.90;;
47749;SDS011;49810;48.160;10.812;2023-09-30T04:30:50;28.70;;;11.73;;
47749;SDS011;49810;48.160;10.812;2023-09-30T04:33:18;27.90;;;11.93;;
47749;SDS011;49810;48.160;10.812;2023-09-30T04:35:46;27.48;;;11.05;;
47749;SDS011;49810;48.160;10.812;2023-09-30T04:38:14;29.08;;;11.63;;
47749;SDS011;49810;48.160;10.812;2023-09-30T04:40:42;32.50;;;13.02;;
47749;SDS011;49810;48.160;10.812;2023-09-30T04:43:11;26.67;;;10.77;;
47749;SDS011;49810;48.160;10.812;2023-09-30T04:45:40;29.40;;;11.52;;
47749;SDS011;49810;48.160;10.812;2023-09-30T04:48:10;27.27;;;10.90;;
47749;SDS011;49810;48.160;10.812;2023-09-30T04:50:39;29.65;;;12.13;;
47749;SDS011;49810;48.160;10.812;2023-09-30T04:53:06;26.70;;;10.52;;
47749;SDS011;49810;48.160;10.812;2023-09-30T04:55:35;29.38;;;11.52;;
47749;SDS011;49810;48.160;10.812;2023-09-30T04:58:04;27.58;;;10.75;;
47749;SDS011;49810;48.160;10.812;2023-09-30T05:00:33;31.00;;;11.57;;
47749;SDS011;49810;48.160;10.812;2023-09-30T05:03:01;26.05;;;10.73;;
47749;SDS011;49810;48.160;10.812;2023-09-30T05:05:30;29.60;;;11.52;;
47749;SDS011;49810;48.160;10.812;2023-09-30T05:07:58;32.55;;;12.27;;
47749;SDS011;49810;48.160;10.812;2023-09-30T05:10:26;28.38;;;11.73;;
47749;SDS011;49810;48.160;10.812;2023-09-30T05:12:55;29.63;;;11.13;;
47749;SDS011;49810;48.160;10.812;2023-09-30T05:15:23;26.65;;;11.23;;
47749;SDS011;49810;48.160;10.812;2023-09-30T05:17:52;28.30;;;10.70;;
47749;SDS011;49810;48.160;10.812;2023-09-30T05:20:20;27.90;;;10.98;;
47749;SDS011;49810;48.160;10.812;2023-09-30T05:22:50;25.40;;;10.75;;
47749;SDS011;49810;48.160;10.812;2023-09-30T05:25:18;25.08;;;11.05;;
47749;SDS011;49810;48.160;10.812;2023-09-30T05:27:46;26.90;;;11.02;;
47749;SDS011;49810;48.160;10.812;2023-09-30T05:30:15;29.48;;;11.43;;
47749;SDS011;49810;48.160;10.812;2023-09-30T05:32:46;28.65;;;10.80;;
47749;SDS011;49810;48.160;10.812;2023-09-30T05:35:14;32.47;;;10.95;;
47749;SDS011;49810;48.160;10.812;2023-09-30T05:37:44;27.50;;;10.98;;
47749;SDS011;49810;48.160;10.812;2023-09-30T05:40:14;25.63;;;10.85;;
47749;SDS011;49810;48.160;10.812;2023-09-30T05:42:50;25.38;;;10.55;;
47749;SDS011;49810;48.160;10.812;2023-09-30T05:45:18;28.70;;;10.70;;
47749;SDS011;49810;48.160;10.812;2023-09-30T05:47:46;28.27;;;11.15;;
47749;SDS011;49810;48.160;10.812;2023-09-30T05:50:18;25.55;;;10.00;;
47749;SDS011;49810;48.160;10.812;2023-09-30T05:52:50;28.05;;;10.43;;
47749;SDS011;49810;48.160;10.812;2023-09-30T05:55:19;24.70;;;9.55;;
47749;SDS011;49810;48.160;10.812;2023-09-30T05:57:49;31.95;;;11.00;;
47749;SDS011;49810;48.160;10.812;2023-09-30T06:00:17;31.13;;;10.77;;
47749;SDS011;49810;48.160;10.812;2023-09-30T06:02:48;28.08;;;9.95;;
47749;SDS011;49810;48.160;10.812;2023-09-30T06:05:18;23.15;;;9.60;;
47749;SDS011;49810;48.160;10.812;2023-09-30T06:07:46;24.77;;;10.48;;
47749;SDS011;49810;48.160;10.812;2023-09-30T06:10:14;23.85;;;9.75;;
47749;SDS011;49810;48.160;10.812;2023-09-30T06:12:46;28.98;;;11.02;;
47749;SDS011;49810;48.160;10.812;2023-09-30T06:15:14;24.70;;;10.20;;
47749;SDS011;49810;48.160;10.812;2023-09-30T06:17:48;28.60;;;10.93;;
47749;SDS011;49810;48.160;10.812;2023-09-30T06:20:16;26.90;;;10.20;;
47749;SDS011;49810;48.160;10.812;2023-09-30T06:22:44;22.75;;;9.98;;
47749;SDS011;49810;48.160;10.812;2023-09-30T06:25:14;26.50;;;10.32;;
47749;SDS011;49810;48.160;10.812;2023-09-30T06:27:43;28.88;;;9.85;;
47749;SDS011;49810;48.160;10.812;2023-09-30T06:30:13;27.85;;;9.98;;
47749;SDS011;49810;48.160;10.812;2023-09-30T06:32:43;25.48;;;10.65;;
47749;SDS011;49810;48.160;10.812;2023-09-30T06:35:11;24.05;;;9.15;;
47749;SDS011;49810;48.160;10.812;2023-09-30T06:37:39;24.20;;;10.23;;
47749;SDS011;49810;48.160;10.812;2023-09-30T06:40:08;24.13;;;9.85;;
47749;SDS011;49810;48.160;10.812;2023-09-30T06:42:38;24.83;;;10.65;;
47749;SDS011;49810;48.160;10.812;2023-09-30T06:45:07;25.98;;;10.07;;
47749;SDS011;49810;48.160;10.812;2023-09-30T06:47:39;28.65;;;12.07;;
47749;SDS011;49810;48.160;10.812;2023-09-30T06:50:09;28.05;;;10.38;;
47749;SDS011;49810;48.160;10.812;2023-09-30T06:52:39;31.70;;;9.88;;
47749;SDS011;49810;48.160;10.812;2023-09-30T06:55:08;25.73;;;8.88;;
47749;SDS011;49810;48.160;10.812;2023-09-30T06:57:37;23.98;;;10.55;;
47749;SDS011;49810;48.160;10.812;2023-09-30T07:00:07;27.95;;;11.05;;
47749;SDS011;49810;48.160;10.812;2023-09-30T07:02:37;26.83;;;10.13;;
47749;SDS011;49810;48.160;10.812;2023-09-30T07:05:06;22.55;;;9.02;;
47749;SDS011;49810;48.160;10.812;2023-09-30T07:07:34;25.00;;;9.70;;
47749;SDS011;49810;48.160;10.812;2023-09-30T07:10:02;22.90;;;8.55;;
47749;SDS011;49810;48.160;10.812;2023-09-30T07:12:31;20.77;;;8.30;;
47749;SDS011;49810;48.160;10.812;2023-09-30T07:15:03;18.95;;;7.57;;
47749;SDS011;49810;48.160;10.812;2023-09-30T07:17:31;20.85;;;8.27;;
47749;SDS011;49810;48.160;10.812;2023-09-30T07:20:02;23.73;;;7.95;;
47749;SDS011;49810;48.160;10.812;2023-09-30T07:22:32;19.40;;;7.70;;
47749;SDS011;49810;48.160;10.812;2023-09-30T07:25:15;21.00;;;8.07;;
47749;SDS011;49810;48.160;10.812;2023-09-30T07:27:44;18.65;;;7.95;;
47749;SDS011;49810;48.160;10.812;2023-09-30T07:30:12;17.73;;;7.88;;
47749;SDS011;49810;48.160;10.812;2023-09-30T07:32:42;18.08;;;7.78;;
47749;SDS011;49810;48.160;10.812;2023-09-30T07:35:11;20.67;;;7.75;;
47749;SDS011;49810;48.160;10.812;2023-09-30T07:37:40;15.32;;;7.03;;
47749;SDS011;49810;48.160;10.812;2023-09-30T07:40:09;16.25;;;7.18;;
47749;SDS011;49810;48.160;10.812;2023-09-30T07:42:37;15.07;;;6.75;;
47749;SDS011;49810;48.160;10.812;2023-09-30T07:45:06;14.15;;;6.32;;
47749;SDS011;49810;48.160;10.812;2023-09-30T07:47:35;16.45;;;6.60;;
47749;SDS011;49810;48.160;10.812;2023-09-30T07:50:03;12.43;;;6.18;;
47749;SDS011;49810;48.160;10.812;2023-09-30T07:52:38;18.20;;;7.22;;
47749;SDS011;49810;48.160;10.812;2023-09-30T07:55:08;17.02;;;6.57;;
47749;SDS011;49810;48.160;10.812;2023-09-30T07:57:36;14.77;;;6.10;;
47749;SDS011;49810;48.160;10.812;2023-09-30T08:00:05;13.95;;;6.38;;
47749;SDS011;49810;48.160;10.812;2023-09-30T08:02:36;16.27;;;6.78;;
47749;SDS011;49810;48.160;10.812;2023-09-30T08:05:05;16.00;;;6.70;;
47749;SDS011;49810;48.160;10.812;2023-09-30T08:07:33;14.65;;;6.43;;
47749;SDS011;49810;48.160;10.812;2023-09-30T08:10:03;15.27;;;6.53;;
47749;SDS011;49810;48.160;10.812;2023-09-30T08:12:33;17.25;;;6.82;;
47749;SDS011;49810;48.160;10.812;2023-09-30T08:15:01;15.27;;;6.70;;
47749;SDS011;49810;48.160;10.812;2023-09-30T08:17:30;14.88;;;6.47;;
47749;SDS011;49810;48.160;10.812;2023-09-30T08:19:59;15.00;;;6.95;;
47749;SDS011;49810;48.160;10.812;2023-09-30T08:22:26;18.08;;;7.10;;
47749;SDS011;49810;48.160;10.812;2023-09-30T08:24:55;14.93;;;6.32;;
47749;SDS011;49810;48.160;10.812;2023-09-30T08:27:24;14.68;;;7.03;;
47749;SDS011;49810;48.160;10.812;2023-09-30T08:29:52;16.05;;;6.88;;
47749;SDS011;49810;48.160;10.812;2023-09-30T08:32:20;17.02;;;6.95;;
47749;SDS011;49810;48.160;10.812;2023-09-30T08:34:48;15.05;;;6.82;;
47749;SDS011;49810;48.160;10.812;2023-09-30T08:37:16;18.45;;;7.47;;
47749;SDS011;49810;48.160;10.812;2023-09-30T08:39:43;17.83;;;7.47;;
47749;SDS011;49810;48.160;10.812;2023-09-30T08:42:11;17.65;;;6.93;;
47749;SDS011;49810;48.160;10.812;2023-09-30T08:44:41;16.10;;;7.20;;
47749;SDS011;49810;48.160;10.812;2023-09-30T08:47:10;15.30;;;6.35;;
47749;SDS011;49810;48.160;10.812;2023-09-30T08:49:39;17.92;;;6.85;;
47749;SDS011;49810;48.160;10.812;2023-09-30T08:52:09;15.02;;;6.93;;
47749;SDS011;49810;48.160;10.812;2023-09-30T08:54:37;15.63;;;7.10;;
47749;SDS011;49810;48.160;10.812;2023-09-30T08:57:05;18.30;;;7.35;;
47749;SDS011;49810;48.160;10.812;2023-09-30T08:59:35;17.75;;;7.25;;
47749;SDS011;49810;48.160;10.812;2023-09-30T09:02:04;14.60;;;6.68;;
47749;SDS011;49810;48.160;10.812;2023-09-30T09:04:35;15.38;;;7.00;;
47749;SDS011;49810;48.160;10.812;2023-09-30T09:07:03;14.63;;;6.28;;
47749;SDS011;49810;48.160;10.812;2023-09-30T09:09:31;16.60;;;6.82;;
47749;SDS011;49810;48.160;10.812;2023-09-30T09:11:59;20.70;;;8.15;;
47749;SDS011;49810;48.160;10.812;2023-09-30T09:14:36;14.93;;;6.68;;
47749;SDS011;49810;48.160;10.812;2023-09-30T09:17:06;16.50;;;7.40;;
47749;SDS011;49810;48.160;10.812;2023-09-30T09:19:34;15.52;;;6.60;;
47749;SDS011;49810;48.160;10.812;2023-09-30T09:22:02;16.13;;;7.32;;
47749;SDS011;49810;48.160;10.812;2023-09-30T09:24:34;16.50;;;6.97;;
47749;SDS011;49810;48.160;10.812;2023-09-30T09:27:05;16.02;;;7.20;;
47749;SDS011;49810;48.160;10.812;2023-09-30T09:29:33;15.27;;;7.13;;
47749;SDS011;49810;48.160;10.812;2023-09-30T09:32:12;15.70;;;6.60;;
47749;SDS011;49810;48.160;10.812;2023-09-30T09:34:41;16.10;;;7.10;;
47749;SDS011;49810;48.160;10.812;2023-09-30T09:37:13;16.85;;;6.95;;
47749;SDS011;49810;48.160;10.812;2023-09-30T09:42:27;17.83;;;7.50;;
47749;SDS011;49810;48.160;10.812;2023-09-30T09:44:56;13.38;;;5.88;;
47749;SDS011;49810;48.160;10.812;2023-09-30T09:47:26;16.83;;;7.00;;
47749;SDS011;49810;48.160;10.812;2023-09-30T09:49:56;17.27;;;7.63;;
47749;SDS011;49810;48.160;10.812;2023-09-30T09:52:24;18.40;;;8.07;;
47749;SDS011;49810;48.160;10.812;2023-09-30T09:54:53;16.70;;;7.32;;
47749;SDS011;49810;48.160;10.812;2023-09-30T09:57:21;16.75;;;7.25;;
47749;SDS011;49810;48.160;10.812;2023-09-30T09:59:52;19.02;;;7.85;;
47749;SDS011;49810;48.160;10.812;2023-09-30T10:02:20;17.83;;;7.85;;
47749;SDS011;49810;48.160;10.812;2023-09-30T10:04:50;19.02;;;8.38;;
47749;SDS011;49810;48.160;10.812;2023-09-30T10:07:19;19.30;;;8.32;;
47749;SDS011;49810;48.160;10.812;2023-09-30T10:09:49;17.65;;;8.00;;
47749;SDS011;49810;48.160;10.812;2023-09-30T10:12:17;14.98;;;6.97;;
47749;SDS011;49810;48.160;10.812;2023-09-30T10:14:46;18.45;;;7.93;;
47749;SDS011;49810;48.160;10.812;2023-09-30T10:17:14;18.00;;;7.55;;
47749;SDS011;49810;48.160;10.812;2023-09-30T10:22:30;21.20;;;9.18;;
47749;SDS011;49810;48.160;10.812;2023-09-30T10:24:58;18.92;;;8.10;;
47749;SDS011;49810;48.160;10.812;2023-09-30T10:27:36;19.38;;;7.65;;
47749;SDS011;49810;48.160;10.812;2023-09-30T10:30:08;18.02;;;8.00;;
47749;SDS011;49810;48.160;10.812;2023-09-30T10:35:42;18.05;;;8.00;;
47749;SDS011;49810;48.160;10.812;2023-09-30T10:40:59;18.80;;;8.73;;
47749;SDS011;49810;48.160;10.812;2023-09-30T10:43:28;20.10;;;8.27;;
47749;SDS011;49810;48.160;10.812;2023-09-30T10:45:57;17.63;;;8.10;;
47749;SDS011;49810;48.160;10.812;2023-09-30T10:48:37;15.73;;;7.60;;
47749;SDS011;49810;48.160;10.812;2023-09-30T10:51:13;17.40;;;8.10;;
47749;SDS011;49810;48.160;10.812;2023-09-30T10:53:43;18.20;;;7.70;;
47749;SDS011;49810;48.160;10.812;2023-09-30T10:56:13;20.30;;;9.02;;
47749;SDS011;49810;48.160;10.812;2023-09-30T10:58:42;19.77;;;8.75;;
47749;SDS011;49810;48.160;10.812;2023-09-30T11:01:10;18.73;;;8.52;;
47749;SDS011;49810;48.160;10.812;2023-09-30T11:03:40;20.23;;;9.07;;
47749;SDS011;49810;48.160;10.812;2023-09-30T11:06:10;18.65;;;8.88;;
47749;SDS011;49810;48.160;10.812;2023-09-30T11:08:40;21.23;;;8.95;;
47749;SDS011;49810;48.160;10.812;2023-09-30T11:11:13;17.58;;;8.15;;
47749;SDS011;49810;48.160;10.812;2023-09-30T11:13:42;18.23;;;8.57;;
47749;SDS011;49810;48.160;10.812;2023-09-30T11:16:09;18.20;;;8.48;;
47749;SDS011;49810;48.160;10.812;2023-09-30T11:18:37;19.73;;;9.27;;
47749;SDS011;49810;48.160;10.812;2023-09-30T11:21:06;17.90;;;8.15;;
47749;SDS011;49810;48.160;10.812;2023-09-30T11:23:34;21.48;;;9.68;;
47749;SDS011;49810;48.160;10.812;2023-09-30T11:26:02;22.23;;;9.50;;
47749;SDS011;49810;48.160;10.812;2023-09-30T11:28:36;21.23;;;9.65;;
47749;SDS011;49810;48.160;10.812;2023-09-30T11:31:09;19.60;;;8.95;;
47749;SDS011;49810;48.160;10.812;2023-09-30T11:33:48;19.08;;;9.45;;
47749;SDS011;49810;48.160;10.812;2023-09-30T11:36:18;21.83;;;9.65;;
47749;SDS011;49810;48.160;10.812;2023-09-30T11:38:47;20.83;;;9.73;;
47749;SDS011;49810;48.160;10.812;2023-09-30T11:41:16;19.50;;;9.15;;
47749;SDS011;49810;48.160;10.812;2023-09-30T11:43:58;24.00;;;9.88;;
47749;SDS011;49810;48.160;10.812;2023-09-30T11:46:28;19.92;;;9.35;;
47749;SDS011;49810;48.160;10.812;2023-09-30T11:48:56;21.77;;;9.93;;
47749;SDS011;49810;48.160;10.812;2023-09-30T11:51:25;19.75;;;9.35;;
47749;SDS011;49810;48.160;10.812;2023-09-30T11:53:53;20.60;;;10.18;;
47749;SDS011;49810;48.160;10.812;2023-09-30T11:56:23;20.63;;;10.25;;
47749;SDS011;49810;48.160;10.812;2023-09-30T11:58:55;23.05;;;10.95;;
47749;SDS011;49810;48.160;10.812;2023-09-30T12:01:25;21.33;;;10.38;;
47749;SDS011;49810;48.160;10.812;2023-09-30T12:03:57;22.52;;;10.77;;
47749;SDS011;49810;48.160;10.812;2023-09-30T12:06:26;22.98;;;10.90;;
47749;SDS011;49810;48.160;10.812;2023-09-30T12:08:54;19.88;;;9.40;;
47749;SDS011;49810;48.160;10.812;2023-09-30T12:11:23;27.25;;;11.20;;
47749;SDS011;49810;48.160;10.812;2023-09-30T12:13:52;22.75;;;10.77;;
47749;SDS011;49810;48.160;10.812;2023-09-30T12:16:20;21.00;;;11.07;;
47749;SDS011;49810;48.160;10.812;2023-09-30T12:18:51;19.70;;;9.75;;
47749;SDS011;49810;48.160;10.812;2023-09-30T12:21:19;19.98;;;10.30;;
47749;SDS011;49810;48.160;10.812;2023-09-30T12:23:48;23.30;;;11.10;;
47749;SDS011;49810;48.160;10.812;2023-09-30T12:26:16;24.95;;;11.27;;
47749;SDS011;49810;48.160;10.812;2023-09-30T12:28:46;19.63;;;10.75;;
47749;SDS011;49810;48.160;10.812;2023-09-30T12:31:15;22.58;;;11.10;;
47749;SDS011;49810;48.160;10.812;2023-09-30T12:33:44;23.05;;;11.30;;
47749;SDS011;49810;48.160;10.812;2023-09-30T12:36:18;21.50;;;11.02;;
47749;SDS011;49810;48.160;10.812;2023-09-30T12:38:46;20.90;;;10.85;;
47749;SDS011;49810;48.160;10.812;2023-09-30T12:41:14;18.77;;;10.13;;
47749;SDS011;49810;48.160;10.812;2023-09-30T12:43:42;22.30;;;10.32;;
47749;SDS011;49810;48.160;10.812;2023-09-30T12:46:10;21.35;;;11.13;;
47749;SDS011;49810;48.160;10.812;2023-09-30T12:48:40;20.77;;;10.52;;
47749;SDS011;49810;48.160;10.812;2023-09-30T12:51:08;19.02;;;10.02;;
47749;SDS011;49810;48.160;10.812;2023-09-30T12:53:38;21.42;;;10.05;;
47749;SDS011;49810;48.160;10.812;2023-09-30T12:56:05;19.55;;;9.93;;
47749;SDS011;49810;48.160;10.812;2023-09-30T12:58:33;22.88;;;10.68;;
47749;SDS011;49810;48.160;10.812;2023-09-30T13:01:01;21.25;;;10.13;;
47749;SDS011;49810;48.160;10.812;2023-09-30T13:03:47;21.98;;;10.20;;
47749;SDS011;49810;48.160;10.812;2023-09-30T13:06:16;22.25;;;10.80;;
47749;SDS011;49810;48.160;10.812;2023-09-30T13:08:45;19.13;;;9.52;;
47749;SDS011;49810;48.160;10.812;2023-09-30T13:11:13;21.63;;;10.20;;
47749;SDS011;49810;48.160;10.812;2023-09-30T13:13:41;21.27;;;10.30;;
47749;SDS011;49810;48.160;10.812;2023-09-30T13:16:10;25.52;;;11.05;;
47749;SDS011;49810;48.160;10.812;2023-09-30T13:18:40;21.60;;;10.55;;
47749;SDS011;49810;48.160;10.812;2023-09-30T13:21:08;22.88;;;10.73;;
47749;SDS011;49810;48.160;10.812;2023-09-30T13:23:38;22.52;;;10.07;;
47749;SDS011;49810;48.160;10.812;2023-09-30T13:26:08;21.77;;;11.00;;
47749;SDS011;49810;48.160;10.812;2023-09-30T13:28:35;21.65;;;10.73;;
47749;SDS011;49810;48.160;10.812;2023-09-30T13:31:03;22.08;;;11.15;;
47749;SDS011;49810;48.160;10.812;2023-09-30T13:33:31;20.40;;;10.20;;
47749;SDS011;49810;48.160;10.812;2023-09-30T13:35:59;20.75;;;10.43;;
47749;SDS011;49810;48.160;10.812;2023-09-30T13:38:28;22.92;;;10.75;;
47749;SDS011;49810;48.160;10.812;2023-09-30T13:40:56;21.65;;;10.57;;
47749;SDS011;49810;48.160;10.812;2023-09-30T13:43:25;21.10;;;10.75;;
47749;SDS011;49810;48.160;10.812;2023-09-30T13:45:53;22.70;;;10.77;;
47749;SDS011;49810;48.160;10.812;2023-09-30T13:48:21;22.70;;;10.40;;
47749;SDS011;49810;48.160;10.812;2023-09-30T13:50:49;21.38;;;10.35;;
47749;SDS011;49810;48.160;10.812;2023-09-30T13:53:17;20.38;;;10.00;;
47749;SDS011;49810;48.160;10.812;2023-09-30T13:55:45;22.35;;;10.63;;
47749;SDS011;49810;48.160;10.812;2023-09-30T13:58:13;25.77;;;12.15;;
47749;SDS011;49810;48.160;10.812;2023-09-30T14:00:47;22.73;;;10.70;;
47749;SDS011;49810;48.160;10.812;2023-09-30T14:03:15;20.38;;;10.82;;
47749;SDS011;49810;48.160;10.812;2023-09-30T14:05:43;21.85;;;10.68;;
47749;SDS011;49810;48.160;10.812;2023-09-30T14:08:12;20.17;;;10.18;;
47749;SDS011;49810;48.160;10.812;2023-09-30T14:10:39;21.60;;;10.25;;
47749;SDS011;49810;48.160;10.812;2023-09-30T14:13:07;20.67;;;9.77;;
47749;SDS011;49810;48.160;10.812;2023-09-30T14:15:35;19.48;;;10.15;;
47749;SDS011;49810;48.160;10.812;2023-09-30T14:18:05;18.88;;;9.95;;
47749;SDS011;49810;48.160;10.812;2023-09-30T14:20:33;18.63;;;9.63;;
47749;SDS011;49810;48.160;10.812;2023-09-30T14:23:02;17.75;;;10.05;;
47749;SDS011;49810;48.160;10.812;2023-09-30T14:25:30;20.45;;;9.90;;
47749;SDS011;49810;48.160;10.812;2023-09-30T14:27:58;19.23;;;9.50;;
47749;SDS011;49810;48.160;10.812;2023-09-30T14:30:27;21.80;;;9.80;;
47749;SDS011;49810;48.160;10.812;2023-09-30T14:32:55;20.92;;;9.52;;
47749;SDS011;49810;48.160;10.812;2023-09-30T14:35:24;21.08;;;10.10;;